createdAt,value
2023-01-28T00:01:17.840Z,54.27
2023-01-28T00:03:44.482Z,54.46
2023-01-28T00:06:15.274Z,55.29
2023-01-28T00:08:42.259Z,54.19
2023-01-28T00:11:11.386Z,54.18
2023-01-28T00:13:38.223Z,53.97
2023-01-28T00:16:06.268Z,54.76
2023-01-28T00:18:33.068Z,54.82
2023-01-28T00:21:04.538Z,53.84
2023-01-28T00:23:36.576Z,53.46
2023-01-28T00:26:06.312Z,53.37
2023-01-28T00:28:33.149Z,53.74
2023-01-28T00:30:59.804Z,54.58
2023-01-28T00:33:26.404Z,53.70
2023-01-28T00:36:03.671Z,54.04
2023-01-28T00:38:30.300Z,53.90
2023-01-28T00:40:56.860Z,53.32
2023-01-28T00:43:23.386Z,53.46
2023-01-28T00:45:50.420Z,53.30
2023-01-28T00:48:17.285Z,53.08
2023-01-28T00:50:45.680Z,53.25
2023-01-28T00:53:12.325Z,53.28
2023-01-28T00:55:39.042Z,53.38
2023-01-28T00:58:05.641Z,54.18
2023-01-28T01:00:32.233Z,53.13
2023-01-28T01:02:59.581Z,53.57
2023-01-28T01:05:26.162Z,53.75
2023-01-28T01:07:52.877Z,54.00
2023-01-28T01:10:19.932Z,53.94
2023-01-28T01:12:48.288Z,54.05
2023-01-28T01:15:15.755Z,54.28
2023-01-28T01:17:44.645Z,53.96
2023-01-28T01:20:17.340Z,54.47
2023-01-28T01:22:43.881Z,54.34
2023-01-28T01:25:11.646Z,53.82
2023-01-28T01:27:38.236Z,53.64
2023-01-28T01:30:05.298Z,53.43
2023-01-28T01:32:32.821Z,53.46
2023-01-28T01:34:59.388Z,53.45
2023-01-28T01:37:25.960Z,53.44
2023-01-28T01:39:52.678Z,53.19
2023-01-28T01:42:19.558Z,53.07
2023-01-28T01:45:00.251Z,53.69
2023-01-28T01:47:35.698Z,53.47
2023-01-28T01:50:10.671Z,53.60
2023-01-28T01:52:37.286Z,53.31
2023-01-28T01:55:09.472Z,53.34
2023-01-28T01:57:37.449Z,53.28
2023-01-28T02:00:06.663Z,53.60
2023-01-28T02:02:38.438Z,53.61
2023-01-28T02:05:07.067Z,53.37
2023-01-28T02:07:34.371Z,53.49
2023-01-28T02:10:00.923Z,53.85
2023-01-28T02:12:33.846Z,54.14
2023-01-28T02:15:05.400Z,54.05
2023-01-28T02:17:32.431Z,54.03
2023-01-28T02:20:06.234Z,54.20
2023-01-28T02:22:44.991Z,53.91
2023-01-28T02:25:38.982Z,53.90
2023-01-28T02:28:17.632Z,54.01
2023-01-28T02:30:59.861Z,54.09
2023-01-28T02:33:51.419Z,54.21
2023-01-28T02:36:28.603Z,53.79
2023-01-28T02:38:57.695Z,54.00
2023-01-28T02:41:31.652Z,54.26
2023-01-28T02:43:58.189Z,54.06
2023-01-28T02:46:46.446Z,54.21
2023-01-28T02:49:21.714Z,54.25
2023-01-28T02:52:47.177Z,54.45
2023-01-28T02:55:42.848Z,54.62
2023-01-28T02:58:09.284Z,54.03
2023-01-28T03:00:47.868Z,54.30
2023-01-28T03:03:21.715Z,54.10
2023-01-28T03:06:09.159Z,54.19
2023-01-28T03:09:11.716Z,54.46
2023-01-28T03:12:02.336Z,53.82
2023-01-28T03:14:51.271Z,54.28
2023-01-28T03:17:44.710Z,54.20
2023-01-28T03:20:31.351Z,54.12
2023-01-28T03:23:22.160Z,54.10
2023-01-28T03:26:08.876Z,54.26
2023-01-28T03:28:56.542Z,53.79
2023-01-28T03:31:42.987Z,54.19
2023-01-28T03:34:30.321Z,54.01
2023-01-28T03:36:57.145Z,53.77
2023-01-28T03:39:28.326Z,54.66
2023-01-28T03:42:00.781Z,54.07
2023-01-28T03:44:45.918Z,54.11
2023-01-28T03:47:12.585Z,54.14
2023-01-28T03:49:41.306Z,54.15
2023-01-28T03:52:08.560Z,53.80
2023-01-28T03:54:35.504Z,54.03
2023-01-28T03:57:02.565Z,53.94
2023-01-28T03:59:29.214Z,53.31
2023-01-28T04:01:55.872Z,53.59
2023-01-28T04:04:25.745Z,53.84
2023-01-28T04:06:53.060Z,53.46
2023-01-28T04:09:20.716Z,52.86
2023-01-28T04:11:48.130Z,51.72
2023-01-28T04:14:15.298Z,51.42
2023-01-28T04:16:42.784Z,50.98
2023-01-28T04:19:09.953Z,51.32
2023-01-28T04:21:36.486Z,51.66
2023-01-28T04:24:03.026Z,51.90
2023-01-28T17:27:03.068Z,49.33
2023-01-28T17:29:29.870Z,49.54
2023-01-28T17:31:56.325Z,50.50
2023-01-28T17:34:23.041Z,49.79
2023-01-28T17:36:49.488Z,50.30
2023-01-28T17:39:18.503Z,49.90
2023-01-28T17:41:47.621Z,49.82
2023-01-28T17:44:17.116Z,50.18
2023-01-28T17:46:43.605Z,50.58
2023-01-28T17:49:10.068Z,50.41
2023-01-28T17:51:36.813Z,50.75
2023-01-28T17:54:03.425Z,50.80
2023-01-28T17:56:31.217Z,50.77
2023-01-28T17:59:02.640Z,50.79
2023-01-28T18:01:30.153Z,50.62
2023-01-28T18:03:58.035Z,50.88
2023-01-28T18:06:24.760Z,51.07
2023-01-28T18:08:51.313Z,51.05
2023-01-28T18:11:19.511Z,50.88
2023-01-28T18:13:46.052Z,51.21
2023-01-28T18:16:17.235Z,51.26
2023-01-28T18:18:45.048Z,51.11
2023-01-28T18:21:22.731Z,51.19
2023-01-28T18:23:52.172Z,51.38
2023-01-28T18:26:18.785Z,51.00
2023-01-28T18:28:45.267Z,51.04
2023-01-28T18:31:11.887Z,51.12
2023-01-28T18:33:38.380Z,51.18
2023-01-28T18:36:06.191Z,51.34
2023-01-28T18:38:33.115Z,51.27
2023-01-28T18:40:59.575Z,51.09
2023-01-28T18:43:26.497Z,51.08
2023-01-28T18:45:53.015Z,51.31
2023-01-28T18:48:19.949Z,51.14
2023-01-28T18:50:51.179Z,51.41
2023-01-28T18:53:17.635Z,51.02
2023-01-28T18:55:44.834Z,51.38
2023-01-28T18:58:11.287Z,50.77
2023-01-28T19:00:38.542Z,51.11
2023-01-28T19:03:05.128Z,51.19
2023-01-28T19:05:36.194Z,51.44
2023-01-28T19:11:02.582Z,51.36
2023-01-28T19:13:29.583Z,51.45
2023-01-28T19:15:56.267Z,51.37
2023-01-28T19:18:22.887Z,51.50
2023-01-28T19:20:49.375Z,51.92
2023-01-28T19:23:15.925Z,51.76
2023-01-28T19:25:42.487Z,52.17
2023-01-28T19:28:09.205Z,52.04
2023-01-28T19:30:36.853Z,51.88
2023-01-28T19:33:04.488Z,52.29
2023-01-28T19:35:31.048Z,52.13
2023-01-28T19:37:57.532Z,52.14
2023-01-28T19:40:24.024Z,52.19
2023-01-28T19:42:53.105Z,52.53
2023-01-28T19:45:20.339Z,52.53
2023-01-28T19:47:47.097Z,52.43
2023-01-28T19:50:14.269Z,52.47
2023-01-28T19:52:40.766Z,52.40
2023-01-28T19:55:08.085Z,52.67
2023-01-28T19:57:34.637Z,52.85
2023-01-28T20:00:01.170Z,52.52
2023-01-28T20:02:28.010Z,52.90
2023-01-28T20:05:00.574Z,52.48
2023-01-28T20:07:27.470Z,52.74
2023-01-28T20:09:53.934Z,52.86
2023-01-28T20:12:20.435Z,52.86
2023-01-28T20:14:47.051Z,52.90
2023-01-28T20:17:13.502Z,52.87
2023-01-28T20:19:40.130Z,52.80
2023-01-28T20:22:06.630Z,53.11
2023-01-28T20:24:33.151Z,52.98
2023-01-28T20:26:59.915Z,52.89
2023-01-28T20:29:26.364Z,53.25
2023-01-28T20:32:13.745Z,53.00
2023-01-28T20:34:42.398Z,53.26
2023-01-28T20:37:11.788Z,53.20
2023-01-28T20:39:38.347Z,53.10
2023-01-28T20:42:06.346Z,53.43
2023-01-28T20:44:32.855Z,53.25
2023-01-28T20:46:59.330Z,53.51
2023-01-28T20:49:28.121Z,53.54
2023-01-28T20:51:54.856Z,53.38
2023-01-28T20:54:21.571Z,53.37
2023-01-28T20:56:52.845Z,53.41
2023-01-28T20:59:19.490Z,53.47
2023-01-28T21:01:46.542Z,53.65
2023-01-28T21:04:13.373Z,53.65
2023-01-28T21:06:42.727Z,53.24
2023-01-28T21:09:09.693Z,53.31
2023-01-28T21:11:36.170Z,53.50
2023-01-28T21:14:02.651Z,53.29
2023-01-28T21:16:29.134Z,53.17
2023-01-28T21:18:55.637Z,53.41
2023-01-28T21:21:25.363Z,53.33
2023-01-28T21:23:54.744Z,53.16
2023-01-28T21:26:21.758Z,53.25
2023-01-28T21:28:48.395Z,53.16
2023-01-28T21:31:17.983Z,53.40
2023-01-28T21:33:51.740Z,53.34
2023-01-28T21:36:19.335Z,53.34
2023-01-28T21:38:51.253Z,53.44
2023-01-28T21:41:17.712Z,53.78
2023-01-28T21:43:44.249Z,53.63
2023-01-28T21:46:10.759Z,53.52
2023-01-28T21:48:37.243Z,53.31
2023-01-28T21:51:26.289Z,53.57
2023-01-28T21:53:53.212Z,53.59
2023-01-28T21:56:19.705Z,53.51
2023-01-28T21:59:04.926Z,53.66
2023-01-28T22:01:31.416Z,53.65
2023-01-28T22:03:58.091Z,53.47
2023-01-28T22:06:24.662Z,53.77
2023-01-28T22:08:54.217Z,54.01
2023-01-28T22:11:21.170Z,54.02
2023-01-28T22:13:48.184Z,53.68
2023-01-28T22:16:14.751Z,53.79
2023-01-28T22:18:41.313Z,53.94
2023-01-28T22:21:11.067Z,53.90
2023-01-28T22:23:37.514Z,53.89
2023-01-28T22:26:04.059Z,54.03
2023-01-28T22:28:31.084Z,54.10
2023-01-28T22:31:15.987Z,53.99
2023-01-28T22:33:43.101Z,53.98
2023-01-28T22:36:13.960Z,54.15
2023-01-28T22:38:42.668Z,54.44
2023-01-28T22:41:12.300Z,54.24
2023-01-28T22:43:39.296Z,54.47
2023-01-28T22:46:06.184Z,54.69
2023-01-28T22:48:36.052Z,54.41
2023-01-28T22:51:04.805Z,54.97
2023-01-28T22:53:31.323Z,55.06
2023-01-28T22:55:57.966Z,55.08
2023-01-28T22:58:24.690Z,54.84
2023-01-28T23:00:51.199Z,54.88
2023-01-28T23:03:17.682Z,54.99
2023-01-28T23:05:44.870Z,55.13
2023-01-28T23:08:11.442Z,55.13
2023-01-28T23:10:50.863Z,54.97
2023-01-28T23:13:20.038Z,55.16
2023-01-28T23:16:06.844Z,54.91
2023-01-28T23:18:52.427Z,54.98
2023-01-28T23:21:40.052Z,54.85
2023-01-28T23:24:21.620Z,55.11
2023-01-28T23:26:53.686Z,55.07
2023-01-28T23:29:23.801Z,55.08
2023-01-28T23:31:54.023Z,54.88
2023-01-28T23:34:21.475Z,54.92
2023-01-28T23:36:48.980Z,55.16
2023-01-28T23:39:15.668Z,55.24
2023-01-28T23:41:42.234Z,55.13
2023-01-28T23:44:08.787Z,54.79
2023-01-28T23:46:39.698Z,54.95
2023-01-28T23:49:08.817Z,55.01
2023-01-28T23:51:35.605Z,54.83
2023-01-28T23:54:02.171Z,54.20
2023-01-28T23:56:28.739Z,54.63
2023-01-28T23:58:56.951Z,54.77
